Time;durP1;ratioP1;P1;durP2;ratioP2;P2;SDS_P1;SDS_P2;PMS_P1;PMS_P2;Temp;Humidity;BMP_temperature;BMP_pressure;BME280_temperature;BME280_humidity;BME280_pressure;Samples;Min_cycle;Max_cycle;Signal;HPM_P1;HPM_P2
2021/08/24 00:00:31;;;;;;;14.10;7.10;;;17.50;99.10;;;;;;5081023;28;20203;-83
2021/08/24 00:02:58;;;;;;;12.20;6.47;;;17.60;99.10;;;;;;5081072;28;20415;-83
2021/08/24 00:05:28;;;;;;;14.05;6.60;;;17.60;99.10;;;;;;5080704;28;20421;-83
2021/08/24 00:07:56;;;;;;;10.55;7.03;;;17.60;99.10;;;;;;5081364;28;20581;-83
2021/08/24 00:10:24;;;;;;;14.43;6.93;;;17.60;99.10;;;;;;5080791;28;20270;-83
2021/08/24 00:12:50;;;;;;;10.32;7.20;;;17.60;99.10;;;;;;5081698;28;20184;-83
2021/08/24 00:15:17;;;;;;;11.10;6.78;;;17.60;99.10;;;;;;5080930;28;20192;-83
2021/08/24 00:17:43;;;;;;;10.45;6.75;;;17.50;99.10;;;;;;5081298;28;20168;-83
2021/08/24 00:20:10;;;;;;;13.77;6.80;;;17.60;99.10;;;;;;5081471;28;20302;-83
2021/08/24 00:22:38;;;;;;;12.13;6.78;;;17.60;99.10;;;;;;5081381;28;20172;-83
2021/08/24 00:25:10;;;;;;;12.95;7.50;;;17.60;99.10;;;;;;5081284;28;20187;-83
2021/08/24 00:27:36;;;;;;;11.52;7.30;;;17.50;99.10;;;;;;5081016;28;20546;-83
2021/08/24 00:30:03;;;;;;;15.93;6.40;;;17.60;99.10;;;;;;5080742;28;20179;-83
2021/08/24 00:32:29;;;;;;;15.20;7.72;;;17.60;99.10;;;;;;5081417;28;20409;-83
2021/08/24 00:34:56;;;;;;;11.82;7.38;;;17.60;99.10;;;;;;5080634;28;20241;-83
2021/08/24 00:37:22;;;;;;;10.98;7.13;;;17.60;99.10;;;;;;5081613;28;20172;-83
2021/08/24 00:39:48;;;;;;;14.40;7.15;;;17.60;99.10;;;;;;5081179;28;20260;-83
2021/08/24 00:42:16;;;;;;;13.27;6.85;;;17.60;99.10;;;;;;5080965;28;20171;-83
2021/08/24 00:44:48;;;;;;;9.82;6.88;;;17.60;99.10;;;;;;5080865;28;20556;-83
2021/08/24 00:47:17;;;;;;;13.45;7.10;;;17.60;99.10;;;;;;5080484;28;20310;-83
2021/08/24 00:49:44;;;;;;;9.73;6.75;;;17.60;99.10;;;;;;5080358;28;20168;-83
2021/08/24 00:52:22;;;;;;;14.88;7.00;;;17.60;99.10;;;;;;5080604;28;20527;-83
2021/08/24 00:54:48;;;;;;;12.63;7.25;;;17.60;99.10;;;;;;5081053;28;20191;-83
2021/08/24 00:57:18;;;;;;;11.68;6.75;;;17.60;99.10;;;;;;5079968;28;20179;-83
2021/08/24 00:59:44;;;;;;;9.98;6.32;;;17.60;99.10;;;;;;5080471;28;20362;-83
2021/08/24 01:02:11;;;;;;;14.18;7.93;;;17.50;99.10;;;;;;5080340;28;20259;-83
2021/08/24 01:04:38;;;;;;;21.00;7.05;;;17.50;99.10;;;;;;5080054;28;20191;-83
2021/08/24 01:07:19;;;;;;;11.85;7.57;;;17.40;99.10;;;;;;5080385;28;20179;-83
2021/08/24 01:10:03;;;;;;;10.68;6.07;;;17.30;99.10;;;;;;5080883;28;20187;-83
2021/08/24 01:12:42;;;;;;;12.10;6.55;;;17.30;99.10;;;;;;5080806;28;20179;-83
2021/08/24 01:15:25;;;;;;;8.27;6.25;;;17.20;99.10;;;;;;5079836;28;20560;-83
2021/08/24 01:18:12;;;;;;;8.75;6.00;;;17.10;99.10;;;;;;5098645;28;20270;-83
2021/08/24 01:21:09;;;;;;;9.63;6.60;;;17.10;99.10;;;;;;5079805;28;20203;-83
2021/08/24 01:23:45;;;;;;;16.10;6.70;;;17.00;99.10;;;;;;5080287;28;20188;-83
2021/08/24 01:26:41;;;;;;;8.73;5.88;;;17.00;99.10;;;;;;5080027;28;20159;-83
2021/08/24 01:29:25;;;;;;;7.90;5.35;;;17.00;99.10;;;;;;5079426;28;20176;-83
2021/08/24 01:32:18;;;;;;;7.50;4.82;;;17.00;99.10;;;;;;5080299;28;20167;-82
2021/08/24 01:35:08;;;;;;;8.77;5.65;;;16.90;99.10;;;;;;5080901;28;20221;-83
2021/08/24 01:38:07;;;;;;;17.73;4.97;;;16.90;99.10;;;;;;5080499;28;20533;-82
2021/08/24 01:41:02;;;;;;;9.20;4.63;;;16.80;99.10;;;;;;5059968;28;20212;-82
2021/08/24 01:43:48;;;;;;;8.65;5.13;;;16.80;99.10;;;;;;5079958;28;20178;-82
2021/08/24 01:46:28;;;;;;;11.27;5.50;;;16.80;99.10;;;;;;5080003;28;20678;-83
2021/08/24 01:49:00;;;;;;;9.18;5.53;;;16.80;99.10;;;;;;5079786;28;20236;-83
2021/08/24 01:51:30;;;;;;;14.18;5.30;;;16.80;99.10;;;;;;5078586;28;20540;-83
2021/08/24 01:54:08;;;;;;;10.98;5.97;;;16.80;99.10;;;;;;5079898;28;20188;-82
2021/08/24 01:56:38;;;;;;;8.95;5.72;;;16.80;99.10;;;;;;5079368;28;20267;-83
2021/08/24 01:59:16;;;;;;;8.55;5.32;;;16.70;98.80;;;;;;5079090;28;20289;-83
2021/08/24 02:01:56;;;;;;;8.15;5.07;;;16.70;98.90;;;;;;5079471;28;20258;-83
2021/08/24 02:04:41;;;;;;;7.55;4.50;;;16.60;97.90;;;;;;5079640;28;20187;-83
2021/08/24 02:07:09;;;;;;;11.20;5.28;;;16.60;98.40;;;;;;5078963;28;20164;-83
2021/08/24 02:09:48;;;;;;;8.65;4.95;;;16.60;97.80;;;;;;5079446;28;20172;-83
2021/08/24 02:12:17;;;;;;;9.07;5.07;;;16.50;96.90;;;;;;5079414;28;20189;-83
2021/08/24 02:14:44;;;;;;;9.40;4.50;;;16.50;97.70;;;;;;5079020;28;20683;-83
2021/08/24 02:17:13;;;;;;;7.30;4.30;;;16.40;97.60;;;;;;5078840;28;20271;-83
2021/08/24 02:19:51;;;;;;;8.40;4.68;;;16.50;97.60;;;;;;5078217;28;20214;-83
2021/08/24 02:22:28;;;;;;;11.13;4.50;;;16.50;97.50;;;;;;5079004;28;20221;-83
2021/08/24 02:25:01;;;;;;;8.05;4.57;;;16.50;97.70;;;;;;5078432;28;20183;-84
2021/08/24 02:27:31;;;;;;;9.23;4.60;;;16.50;97.90;;;;;;5078508;28;20171;-83
2021/08/24 02:29:58;;;;;;;5.82;3.80;;;16.50;97.60;;;;;;5078149;28;20176;-83
2021/08/24 02:32:33;;;;;;;6.00;3.70;;;16.50;97.50;;;;;;5078476;28;20225;-83
2021/08/24 02:35:04;;;;;;;14.38;5.20;;;16.50;97.90;;;;;;5078159;28;20187;-83
2021/08/24 02:37:52;;;;;;;8.30;4.63;;;16.50;98.00;;;;;;5078537;28;20175;-83
2021/08/24 02:40:30;;;;;;;8.55;4.68;;;16.50;98.00;;;;;;5078071;28;20564;-83
2021/08/24 02:43:11;;;;;;;15.80;4.43;;;16.40;97.70;;;;;;5078043;28;20663;-83
2021/08/24 02:46:06;;;;;;;12.13;4.30;;;16.40;97.70;;;;;;5078434;28;20174;-83
2021/08/24 02:48:35;;;;;;;7.00;4.55;;;16.30;97.50;;;;;;5078268;28;20178;-83
2021/08/24 02:51:01;;;;;;;7.25;4.65;;;16.20;97.80;;;;;;5078398;28;20179;-83
2021/08/24 02:53:27;;;;;;;8.00;4.30;;;16.10;97.60;;;;;;5077797;28;20203;-83
2021/08/24 02:55:53;;;;;;;8.43;5.00;;;16.00;98.50;;;;;;5077974;28;20247;-83
2021/08/24 02:58:19;;;;;;;7.43;4.47;;;15.90;98.60;;;;;;5078328;28;20195;-83
2021/08/24 03:00:47;;;;;;;12.43;4.20;;;15.80;98.70;;;;;;5078108;28;20459;-83
2021/08/24 03:03:14;;;;;;;12.07;5.97;;;15.70;98.80;;;;;;5077660;28;20402;-83
2021/08/24 03:05:40;;;;;;;7.78;4.82;;;15.70;99.10;;;;;;5077384;28;20180;-83
2021/08/24 03:08:06;;;;;;;12.10;5.40;;;15.60;99.10;;;;;;5077136;28;20582;-83
2021/08/24 03:10:35;;;;;;;10.93;4.65;;;15.60;99.10;;;;;;5077571;28;20443;-83
2021/08/24 03:13:30;;;;;;;10.85;4.80;;;15.60;99.10;;;;;;5076841;28;20193;-83
2021/08/24 03:16:20;;;;;;;10.98;5.10;;;15.50;99.10;;;;;;5077201;28;20175;-83
2021/08/24 03:18:53;;;;;;;13.55;4.85;;;15.50;99.10;;;;;;5077962;28;20172;-83
2021/08/24 03:21:24;;;;;;;11.38;6.00;;;15.50;99.10;;;;;;5078533;28;20209;-83
2021/08/24 03:23:52;;;;;;;7.78;4.22;;;15.50;99.10;;;;;;5079001;28;20201;-83
2021/08/24 03:26:28;;;;;;;9.93;5.82;;;15.40;99.10;;;;;;5078076;28;20528;-83
2021/08/24 03:28:55;;;;;;;14.48;5.40;;;15.40;99.10;;;;;;5079043;28;20168;-80
2021/08/24 03:31:22;;;;;;;8.18;5.13;;;15.30;99.10;;;;;;5079787;28;20170;-83
2021/08/24 03:33:48;;;;;;;10.48;5.05;;;15.30;99.10;;;;;;5081881;28;20192;-82
2021/08/24 03:36:15;;;;;;;10.98;5.65;;;15.30;99.10;;;;;;5082007;28;20187;-82
2021/08/24 03:38:41;;;;;;;12.32;5.75;;;15.30;99.10;;;;;;5081865;28;20167;-83
2021/08/24 03:41:09;;;;;;;11.90;6.20;;;15.20;99.10;;;;;;5081340;28;20182;-83
2021/08/24 03:43:35;;;;;;;9.45;5.57;;;15.20;99.10;;;;;;5081307;28;20223;-83
2021/08/24 03:46:02;;;;;;;7.70;4.75;;;15.20;99.10;;;;;;5081319;28;20172;-83
2021/08/24 03:48:28;;;;;;;10.05;6.03;;;15.20;99.10;;;;;;5099776;28;20658;-82
2021/08/24 03:50:53;;;;;;;10.43;5.70;;;15.20;99.10;;;;;;5081665;28;20164;-82
2021/08/24 03:53:19;;;;;;;9.43;5.10;;;15.20;99.10;;;;;;5080936;28;20414;-82
2021/08/24 03:55:45;;;;;;;6.33;4.30;;;15.10;99.10;;;;;;5080438;28;20191;-83
2021/08/24 03:58:12;;;;;;;11.90;6.53;;;15.10;99.10;;;;;;5080486;28;20413;-82
2021/08/24 04:00:45;;;;;;;7.90;4.72;;;15.10;99.10;;;;;;5080166;28;20196;-83
2021/08/24 04:03:10;;;;;;;13.52;5.85;;;15.10;99.10;;;;;;5080552;28;20172;-82
2021/08/24 04:05:36;;;;;;;11.43;7.20;;;15.00;99.10;;;;;;5080297;28;20199;-82
2021/08/24 04:08:02;;;;;;;12.20;6.30;;;15.00;99.10;;;;;;5080506;28;20398;-82
2021/08/24 04:10:28;;;;;;;20.67;7.00;;;14.90;99.10;;;;;;5080724;28;20179;-83
2021/08/24 04:12:53;;;;;;;23.60;6.67;;;14.90;99.10;;;;;;5080645;28;20477;-82
2021/08/24 04:15:19;;;;;;;15.80;7.40;;;14.80;99.10;;;;;;5080659;28;20858;-82
2021/08/24 04:17:45;;;;;;;12.50;6.57;;;14.80;99.10;;;;;;5080644;28;20172;-82
2021/08/24 04:20:13;;;;;;;16.50;6.77;;;14.70;99.10;;;;;;5080539;28;20570;-82
2021/08/24 04:22:43;;;;;;;14.25;7.40;;;14.60;99.10;;;;;;5080744;28;20175;-82
2021/08/24 04:25:10;;;;;;;14.70;6.88;;;14.60;99.10;;;;;;5081242;28;20194;-83
2021/08/24 04:27:36;;;;;;;15.25;8.20;;;14.60;99.10;;;;;;5080131;28;20644;-83
2021/08/24 04:30:03;;;;;;;8.60;6.00;;;14.50;99.10;;;;;;5080951;28;20178;-82
2021/08/24 04:32:29;;;;;;;12.63;7.93;;;14.50;99.10;;;;;;5080257;28;20178;-83
2021/08/24 04:34:55;;;;;;;12.77;6.53;;;14.50;99.10;;;;;;5080490;28;20192;-82
2021/08/24 04:37:22;;;;;;;13.00;7.07;;;14.50;99.10;;;;;;5080710;28;20176;-82
2021/08/24 04:39:48;;;;;;;12.57;6.00;;;14.50;99.10;;;;;;5080895;28;20208;-82
2021/08/24 04:42:14;;;;;;;9.43;6.30;;;14.50;99.10;;;;;;5080433;28;20168;-83
2021/08/24 04:44:40;;;;;;;14.10;7.00;;;14.60;99.10;;;;;;5080800;28;20434;-83
2021/08/24 04:47:06;;;;;;;10.57;5.72;;;14.60;99.10;;;;;;5081332;28;20410;-83
2021/08/24 04:49:31;;;;;;;17.60;7.67;;;14.60;99.10;;;;;;5080390;28;20241;-83
2021/08/24 04:51:58;;;;;;;12.87;6.03;;;14.50;99.10;;;;;;5080478;28;20175;-83
2021/08/24 04:54:23;;;;;;;9.57;6.28;;;14.60;99.10;;;;;;5080185;28;20187;-82
2021/08/24 04:56:49;;;;;;;12.47;7.30;;;14.50;99.10;;;;;;5080018;28;20228;-83
2021/08/24 04:59:15;;;;;;;12.40;6.63;;;14.50;99.10;;;;;;5080195;28;20206;-82
2021/08/24 05:01:41;;;;;;;12.00;6.57;;;14.60;99.10;;;;;;5079786;28;20168;-82
2021/08/24 05:04:07;;;;;;;11.93;7.20;;;14.60;99.10;;;;;;5079938;28;20245;-82
2021/08/24 05:06:33;;;;;;;10.93;5.40;;;14.50;99.10;;;;;;5079159;28;20172;-83
2021/08/24 05:08:58;;;;;;;14.50;6.05;;;14.60;99.10;;;;;;5079206;28;20168;-82
2021/08/24 05:11:24;;;;;;;10.73;6.60;;;14.60;99.10;;;;;;5079745;28;20628;-82
2021/08/24 05:13:50;;;;;;;11.43;6.20;;;14.60;99.10;;;;;;5079991;28;20188;-82
2021/08/24 05:16:16;;;;;;;12.40;6.90;;;14.60;99.10;;;;;;5080184;28;20948;-82
2021/08/24 05:18:42;;;;;;;13.65;7.20;;;14.60;99.10;;;;;;5080115;28;20746;-82
2021/08/24 05:21:13;;;;;;;12.83;7.13;;;14.70;99.10;;;;;;5079740;28;20204;-83
2021/08/24 05:23:40;;;;;;;20.08;7.40;;;14.70;99.10;;;;;;5079489;28;20491;-83
2021/08/24 05:26:07;;;;;;;14.85;7.22;;;14.60;99.10;;;;;;5079986;28;20171;-83
2021/08/24 05:28:33;;;;;;;11.32;7.32;;;14.70;99.10;;;;;;5080126;28;20202;-83
2021/08/24 05:30:59;;;;;;;14.65;8.45;;;14.80;99.10;;;;;;5080005;28;20544;-83
2021/08/24 05:33:25;;;;;;;15.40;8.37;;;14.80;99.10;;;;;;5079402;28;20179;-82
2021/08/24 05:35:50;;;;;;;14.60;9.50;;;14.90;99.10;;;;;;5079295;28;20426;-83
2021/08/24 05:38:16;;;;;;;21.10;8.97;;;15.00;99.10;;;;;;5080019;28;20179;-82
2021/08/24 05:40:42;;;;;;;18.20;8.20;;;14.90;99.10;;;;;;5079679;28;20580;-82
2021/08/24 05:43:08;;;;;;;16.97;9.70;;;15.00;99.10;;;;;;5079349;28;20258;-82
2021/08/24 05:45:34;;;;;;;21.07;10.00;;;15.00;99.10;;;;;;5079270;28;20727;-82
2021/08/24 05:47:59;;;;;;;18.90;8.70;;;15.00;99.10;;;;;;5079746;28;20468;-82
2021/08/24 05:50:26;;;;;;;21.30;8.93;;;15.00;99.10;;;;;;5079373;28;20452;-83
2021/08/24 05:52:53;;;;;;;16.80;7.80;;;15.10;99.10;;;;;;5079116;28;20176;-83
2021/08/24 05:55:19;;;;;;;14.65;8.40;;;15.20;99.10;;;;;;5078756;28;20214;-82
2021/08/24 05:57:45;;;;;;;20.30;8.90;;;15.20;99.10;;;;;;5079376;28;20168;-83
2021/08/24 06:00:12;;;;;;;16.33;8.55;;;15.30;99.10;;;;;;5078863;28;20252;-82
2021/08/24 06:02:38;;;;;;;14.35;8.35;;;15.40;99.10;;;;;;5079611;28;20195;-83
2021/08/24 06:05:06;;;;;;;19.35;8.55;;;15.50;99.10;;;;;;5079133;28;20668;-83
2021/08/24 06:07:32;;;;;;;16.15;9.18;;;15.60;99.10;;;;;;5079012;28;20576;-83
2021/08/24 06:09:59;;;;;;;23.25;9.45;;;15.60;99.10;;;;;;5078495;28;20179;-83
2021/08/24 06:12:25;;;;;;;18.23;9.30;;;15.70;99.10;;;;;;5078626;28;20175;-83
2021/08/24 06:14:51;;;;;;;14.13;7.85;;;15.70;98.00;;;;;;5078776;28;20697;-83
2021/08/24 06:17:18;;;;;;;16.23;8.60;;;15.70;98.20;;;;;;5079495;28;20205;-83
2021/08/24 06:19:43;;;;;;;13.07;7.97;;;15.80;98.70;;;;;;5078477;28;20298;-83
2021/08/24 06:22:09;;;;;;;12.40;7.70;;;15.80;99.10;;;;;;5078704;28;20199;-82
2021/08/24 06:24:37;;;;;;;12.23;6.90;;;15.80;97.90;;;;;;5078662;28;20870;-81
2021/08/24 06:27:05;;;;;;;11.85;6.93;;;15.90;98.20;;;;;;5078576;28;20172;-82
2021/08/24 06:29:31;;;;;;;13.82;6.40;;;16.00;98.50;;;;;;5078721;28;20259;-82
2021/08/24 06:31:59;;;;;;;9.70;6.68;;;16.00;97.60;;;;;;5078247;28;20270;-82
2021/08/24 06:34:28;;;;;;;12.50;6.97;;;16.00;96.30;;;;;;5077675;28;20680;-82
2021/08/24 06:36:53;;;;;;;15.95;7.25;;;16.00;97.30;;;;;;5078396;28;20168;-82
2021/08/24 06:39:20;;;;;;;14.83;7.20;;;16.00;96.50;;;;;;5078334;28;20198;-82
2021/08/24 06:41:46;;;;;;;11.13;6.65;;;16.00;97.10;;;;;;5078801;28;20778;-81
2021/08/24 06:44:12;;;;;;;10.10;6.73;;;16.10;95.90;;;;;;5096743;28;20184;-82
2021/08/24 06:46:39;;;;;;;10.77;7.25;;;16.10;95.90;;;;;;5062469;28;20438;-82
2021/08/24 06:49:06;;;;;;;22.83;6.90;;;16.10;96.60;;;;;;5078908;28;20170;-82
2021/08/24 06:51:32;;;;;;;14.68;7.35;;;16.10;95.60;;;;;;5078653;28;20229;-82
2021/08/24 06:53:58;;;;;;;13.85;7.32;;;16.10;96.60;;;;;;5077930;28;20188;-82
2021/08/24 06:56:24;;;;;;;14.67;6.43;;;16.20;96.40;;;;;;5078735;28;20179;-82
2021/08/24 06:58:50;;;;;;;16.40;7.07;;;16.30;96.10;;;;;;5078539;28;20425;-82
2021/08/24 07:01:22;;;;;;;10.43;5.43;;;16.30;95.40;;;;;;5078224;28;20171;-82
2021/08/24 07:03:47;;;;;;;13.38;5.70;;;16.30;95.30;;;;;;5078347;28;20214;-82
2021/08/24 07:06:14;;;;;;;21.13;7.50;;;16.20;93.90;;;;;;5078922;28;20168;-82
2021/08/24 07:08:40;;;;;;;12.98;5.50;;;16.20;94.20;;;;;;5078313;28;20505;-82
2021/08/24 07:11:07;;;;;;;17.50;5.50;;;16.20;94.30;;;;;;5078786;28;20172;-82
2021/08/24 07:13:35;;;;;;;15.88;6.97;;;16.10;94.60;;;;;;5078285;28;20346;-82
2021/08/24 07:16:05;;;;;;;13.90;6.07;;;16.10;95.50;;;;;;5078293;28;20182;-82
2021/08/24 07:18:31;;;;;;;10.70;6.15;;;16.20;95.40;;;;;;5078047;28;20176;-81
2021/08/24 07:20:57;;;;;;;10.20;5.57;;;16.20;94.90;;;;;;5077891;28;20210;-82
2021/08/24 07:23:23;;;;;;;9.67;6.20;;;16.10;94.80;;;;;;5078257;28;20477;-81
2021/08/24 07:25:49;;;;;;;9.30;6.30;;;16.20;94.80;;;;;;5078235;28;20203;-82
2021/08/24 07:28:15;;;;;;;8.27;5.53;;;16.20;95.10;;;;;;5077090;28;20171;-81
2021/08/24 07:30:48;;;;;;;12.75;6.85;;;16.10;94.70;;;;;;5077390;28;20176;-81
2021/08/24 07:33:16;;;;;;;13.65;6.53;;;16.10;94.70;;;;;;5077727;28;20179;-82
2021/08/24 07:35:42;;;;;;;11.38;6.47;;;16.10;95.80;;;;;;5077416;28;20673;-82
2021/08/24 07:38:08;;;;;;;10.65;5.80;;;16.10;95.50;;;;;;5077824;28;20172;-82
2021/08/24 07:40:34;;;;;;;10.67;5.97;;;16.10;95.50;;;;;;5077420;28;20192;-82
2021/08/24 07:43:00;;;;;;;8.03;5.17;;;16.20;94.10;;;;;;5077276;28;20222;-81
2021/08/24 07:45:26;;;;;;;13.20;6.13;;;16.10;93.20;;;;;;5078180;28;20458;-81
2021/08/24 07:47:52;;;;;;;8.57;5.15;;;16.00;93.80;;;;;;5077475;28;20414;-81
2021/08/24 07:50:18;;;;;;;11.40;6.10;;;16.00;94.90;;;;;;5077376;28;20262;-81
2021/08/24 07:52:44;;;;;;;13.20;6.57;;;16.10;94.90;;;;;;5077261;28;20207;-82
2021/08/24 07:55:11;;;;;;;9.33;5.47;;;16.20;94.80;;;;;;5077081;28;20432;-82
2021/08/24 07:57:37;;;;;;;8.40;5.40;;;16.30;94.20;;;;;;5077099;28;20414;-82
2021/08/24 08:00:03;;;;;;;13.10;5.50;;;16.40;92.80;;;;;;5076967;28;20195;-82
2021/08/24 08:02:29;;;;;;;7.05;4.32;;;16.50;93.30;;;;;;5078119;28;20168;-82
2021/08/24 08:04:55;;;;;;;7.13;4.17;;;16.50;92.00;;;;;;5076940;28;20598;-82
2021/08/24 08:07:21;;;;;;;12.23;3.90;;;16.60;92.10;;;;;;5076855;28;20659;-82
2021/08/24 08:09:47;;;;;;;7.90;4.32;;;16.60;91.40;;;;;;5077809;28;20515;-82
2021/08/24 08:12:19;;;;;;;11.20;4.77;;;16.70;92.40;;;;;;5078465;28;20183;-82
2021/08/24 08:14:45;;;;;;;11.02;5.03;;;16.90;93.00;;;;;;5077801;28;20664;-82
2021/08/24 08:17:11;;;;;;;7.73;5.40;;;17.00;91.80;;;;;;5078434;28;20179;-82
2021/08/24 08:19:38;;;;;;;8.18;5.10;;;17.00;91.90;;;;;;5081134;28;20468;-82
2021/08/24 08:22:05;;;;;;;12.63;6.05;;;17.10;91.70;;;;;;5080279;28;20217;-82
2021/08/24 08:24:31;;;;;;;12.63;6.57;;;17.20;91.70;;;;;;5081232;28;20188;-82
2021/08/24 08:26:57;;;;;;;9.93;6.55;;;17.30;90.80;;;;;;5081187;28;20381;-82
2021/08/24 08:29:23;;;;;;;10.15;5.38;;;17.20;90.10;;;;;;5080539;28;20536;-82
2021/08/24 08:31:49;;;;;;;8.33;5.83;;;17.30;90.80;;;;;;5081196;28;20172;-82
2021/08/24 08:34:18;;;;;;;8.20;5.30;;;17.30;90.60;;;;;;5081508;28;20238;-82
2021/08/24 08:36:45;;;;;;;14.50;5.30;;;17.30;90.50;;;;;;5081017;28;20167;-82
2021/08/24 08:39:12;;;;;;;10.68;5.18;;;17.30;90.70;;;;;;5081392;28;20180;-82
2021/08/24 08:42:25;;;;;;;14.70;6.55;;;17.50;91.00;;;;;;5081330;28;20589;-82
2021/08/24 08:45:06;;;;;;;16.98;5.90;;;17.60;89.20;;;;;;5080893;28;20188;-82
2021/08/24 08:47:59;;;;;;;7.10;4.38;;;17.60;89.10;;;;;;5081024;28;20164;-82
2021/08/24 08:50:32;;;;;;;13.75;6.15;;;17.70;90.50;;;;;;5081263;28;20286;-82
2021/08/24 08:53:29;;;;;;;9.38;4.80;;;17.90;88.10;;;;;;5080661;28;20172;-82
2021/08/24 08:56:20;;;;;;;8.52;4.53;;;18.00;88.70;;;;;;5080039;28;20180;-82
2021/08/24 08:59:04;;;;;;;7.60;4.05;;;18.10;87.10;;;;;;5080821;28;20176;-82
2021/08/24 09:01:48;;;;;;;16.50;4.10;;;17.80;87.60;;;;;;5080530;28;20180;-82
2021/08/24 09:04:37;;;;;;;6.55;3.90;;;17.90;89.20;;;;;;5080876;28;20192;-82
2021/08/24 09:07:10;;;;;;;5.82;3.95;;;18.00;88.90;;;;;;5080318;28;20514;-82
2021/08/24 09:09:38;;;;;;;14.30;4.63;;;18.10;88.30;;;;;;5080720;28;20180;-82
2021/08/24 09:12:06;;;;;;;8.07;4.85;;;18.10;88.00;;;;;;5080094;28;20176;-82
2021/08/24 09:14:45;;;;;;;8.07;4.15;;;18.20;88.10;;;;;;5079934;28;20198;-82
2021/08/24 09:17:20;;;;;;;7.60;4.18;;;18.30;86.70;;;;;;5079713;28;20591;-82
2021/08/24 09:19:53;;;;;;;11.60;3.50;;;18.30;86.20;;;;;;5079760;28;20271;-82
2021/08/24 09:22:19;;;;;;;7.22;4.40;;;18.40;85.30;;;;;;5079027;28;20572;-82
2021/08/24 09:24:47;;;;;;;5.97;4.15;;;18.50;83.80;;;;;;5079991;28;20191;-82
2021/08/24 09:27:21;;;;;;;6.95;4.28;;;18.40;83.50;;;;;;5080699;28;20573;-82
2021/08/24 09:29:49;;;;;;;12.32;4.70;;;18.50;84.10;;;;;;5079464;28;20175;-82
2021/08/24 09:32:19;;;;;;;6.28;3.95;;;18.50;83.70;;;;;;5080092;28;20182;-82
2021/08/24 09:34:48;;;;;;;11.52;4.65;;;18.40;83.70;;;;;;5080326;28;20252;-82
2021/08/24 09:37:23;;;;;;;5.95;3.83;;;18.40;85.80;;;;;;5080369;28;20183;-82
2021/08/24 09:39:49;;;;;;;7.53;3.80;;;18.40;86.00;;;;;;5080794;28;20213;-84
2021/08/24 09:42:25;;;;;;;7.20;4.03;;;18.40;85.60;;;;;;5080362;28;20167;-82
2021/08/24 09:44:50;;;;;;;11.65;4.15;;;18.50;87.10;;;;;;5079538;28;20422;-83
2021/08/24 09:47:21;;;;;;;7.50;3.50;;;18.60;84.40;;;;;;5079506;28;20224;-83
2021/08/24 09:49:48;;;;;;;9.65;4.07;;;18.60;84.50;;;;;;5079535;28;20176;-82
2021/08/24 09:52:23;;;;;;;5.25;3.92;;;18.60;83.90;;;;;;5079203;28;20176;-82
2021/08/24 09:54:49;;;;;;;7.00;4.20;;;18.70;83.90;;;;;;5079054;28;20228;-82
2021/08/24 09:57:18;;;;;;;6.97;4.07;;;18.80;86.00;;;;;;5079318;28;20262;-83
2021/08/24 09:59:58;;;;;;;6.35;4.35;;;19.00;82.10;;;;;;5079080;28;20222;-83
2021/08/24 10:02:52;;;;;;;6.25;3.70;;;19.00;82.40;;;;;;5079079;28;20171;-83
2021/08/24 10:05:21;;;;;;;12.95;4.32;;;19.00;82.10;;;;;;5079107;28;20748;-82
2021/08/24 10:07:52;;;;;;;11.68;4.60;;;19.10;82.30;;;;;;5079633;28;20167;-82
2021/08/24 10:10:31;;;;;;;7.07;3.50;;;19.20;82.30;;;;;;5079190;28;20833;-82
2021/08/24 10:13:00;;;;;;;11.27;3.90;;;19.20;82.10;;;;;;5079512;28;20212;-83
2021/08/24 10:15:38;;;;;;;7.47;4.38;;;19.20;82.60;;;;;;5079579;28;20337;-82
2021/08/24 10:18:08;;;;;;;8.23;4.20;;;19.30;81.60;;;;;;5078599;28;20178;-82
2021/08/24 10:20:55;;;;;;;5.28;4.05;;;19.30;83.50;;;;;;5078502;28;20668;-82
2021/08/24 10:23:28;;;;;;;6.95;4.25;;;19.40;83.10;;;;;;5079012;28;20183;-82
2021/08/24 10:25:58;;;;;;;8.43;4.60;;;19.50;83.30;;;;;;5078548;28;20232;-82
2021/08/24 10:28:32;;;;;;;8.25;4.20;;;19.70;82.40;;;;;;5079160;28;20175;-82
2021/08/24 10:31:17;;;;;;;8.77;3.75;;;19.80;81.30;;;;;;5078978;28;20172;-82
2021/08/24 10:34:01;;;;;;;8.25;4.50;;;19.90;79.90;;;;;;5078589;28;20496;-82
2021/08/24 10:36:46;;;;;;;6.32;3.55;;;20.00;81.70;;;;;;5078754;28;20178;-82
2021/08/24 10:39:31;;;;;;;9.90;4.22;;;20.10;80.80;;;;;;5078634;28;20193;-82
2021/08/24 10:42:15;;;;;;;4.38;3.50;;;20.20;80.30;;;;;;5078936;28;20167;-82
2021/08/24 10:44:54;;;;;;;8.52;4.10;;;20.20;81.20;;;;;;5078556;28;20191;-82
2021/08/24 10:47:50;;;;;;;5.30;3.70;;;20.20;80.10;;;;;;5078202;28;20203;-82
2021/08/24 10:50:21;;;;;;;6.05;4.03;;;20.30;78.50;;;;;;5077903;28;20167;-82
2021/08/24 10:53:11;;;;;;;5.00;3.67;;;20.20;78.50;;;;;;5078842;28;20365;-82
2021/08/24 10:55:49;;;;;;;7.68;4.85;;;20.10;79.80;;;;;;5077794;28;20206;-82
2021/08/24 10:58:26;;;;;;;6.38;4.03;;;20.00;80.50;;;;;;5077842;28;20353;-82
2021/08/24 11:01:00;;;;;;;7.55;4.47;;;19.90;80.80;;;;;;5077984;28;20659;-82
2021/08/24 11:04:03;;;;;;;5.82;3.63;;;19.90;82.70;;;;;;5077574;28;20212;-82
2021/08/24 11:06:53;;;;;;;8.93;3.95;;;20.10;80.80;;;;;;5078287;28;20342;-82
2021/08/24 11:09:45;;;;;;;5.32;3.58;;;20.20;80.80;;;;;;5078393;28;20210;-82
2021/08/24 11:12:13;;;;;;;7.50;4.38;;;20.30;83.50;;;;;;5078691;28;20172;-82
2021/08/24 11:14:56;;;;;;;10.07;4.20;;;20.30;78.80;;;;;;5078300;28;20207;-83
2021/08/24 11:17:46;;;;;;;4.80;3.92;;;20.30;80.50;;;;;;5078784;28;20632;-82
2021/08/24 11:20:43;;;;;;;9.05;4.93;;;20.30;82.10;;;;;;5077685;28;20203;-82
2021/08/24 11:23:24;;;;;;;11.95;5.70;;;20.30;79.60;;;;;;5077853;28;20235;-82
2021/08/24 11:26:23;;;;;;;9.70;4.80;;;20.10;78.80;;;;;;5077559;28;20174;-82
2021/08/24 11:29:12;;;;;;;5.43;4.20;;;20.00;80.30;;;;;;5077486;28;20171;-82
2021/08/24 11:32:10;;;;;;;6.38;3.75;;;20.00;82.10;;;;;;5077259;28;20174;-82
2021/08/24 11:34:43;;;;;;;6.18;3.45;;;20.00;82.10;;;;;;5068273;28;20216;-82
2021/08/24 11:37:16;;;;;;;8.90;4.70;;;20.10;82.30;;;;;;5077444;28;20228;-82
2021/08/24 11:39:47;;;;;;;10.90;5.93;;;20.20;81.30;;;;;;5078043;28;20257;-82
2021/08/24 11:42:26;;;;;;;7.72;4.30;;;20.10;80.30;;;;;;5095732;28;20168;-82
2021/08/24 11:44:55;;;;;;;5.32;3.85;;;20.10;79.80;;;;;;5076821;28;20195;-82
2021/08/24 11:47:37;;;;;;;8.95;4.30;;;20.10;80.20;;;;;;5077131;28;20764;-82
2021/08/24 11:50:19;;;;;;;6.90;3.58;;;20.20;79.20;;;;;;5077333;28;20176;-82
2021/08/24 11:53:02;;;;;;;6.50;3.88;;;20.10;80.60;;;;;;5079848;28;20272;-82
2021/08/24 11:55:52;;;;;;;8.95;3.88;;;20.20;79.80;;;;;;5081446;28;20188;-82
2021/08/24 11:58:35;;;;;;;6.90;4.57;;;20.20;81.90;;;;;;5081615;28;20256;-82
2021/08/24 12:01:04;;;;;;;12.07;3.85;;;20.40;80.10;;;;;;5081725;28;20255;-82
2021/08/24 12:03:31;;;;;;;7.63;3.90;;;20.30;79.50;;;;;;5081902;28;20263;-82
2021/08/24 12:06:00;;;;;;;6.72;4.45;;;20.20;79.60;;;;;;5081811;28;20172;-82
2021/08/24 12:08:28;;;;;;;7.40;3.70;;;20.20;81.30;;;;;;5080834;28;20632;-82
2021/08/24 12:11:18;;;;;;;7.38;4.50;;;20.40;80.10;;;;;;5081504;28;20201;-82
2021/08/24 12:13:47;;;;;;;5.60;3.75;;;20.40;79.40;;;;;;5081127;28;20191;-82
2021/08/24 12:16:25;;;;;;;9.02;5.43;;;20.50;79.40;;;;;;5082242;28;20168;-82
2021/08/24 12:19:10;;;;;;;7.28;4.20;;;20.60;79.60;;;;;;5081220;28;20191;-82
2021/08/24 12:21:54;;;;;;;6.80;4.05;;;20.80;79.10;;;;;;5083831;28;20185;-83
2021/08/24 12:24:23;;;;;;;6.38;4.40;;;20.60;79.60;;;;;;5085155;28;20196;-83
2021/08/24 12:26:51;;;;;;;9.70;5.18;;;20.40;79.20;;;;;;5085313;28;20172;-83
2021/08/24 12:29:35;;;;;;;15.60;5.93;;;20.20;80.90;;;;;;5102860;28;20160;-83
2021/08/24 12:32:10;;;;;;;8.90;5.22;;;20.20;81.30;;;;;;5085352;28;20171;-83
2021/08/24 12:34:36;;;;;;;14.45;5.20;;;20.00;81.60;;;;;;5085403;28;20226;-81
2021/08/24 12:37:19;;;;;;;8.90;5.35;;;19.80;82.40;;;;;;5085541;28;20168;-83
2021/08/24 12:39:45;;;;;;;7.70;4.90;;;19.70;83.40;;;;;;5084725;28;20203;-83
2021/08/24 12:42:19;;;;;;;10.32;4.55;;;19.60;83.70;;;;;;5085063;28;20578;-83
2021/08/24 12:45:10;;;;;;;7.72;4.82;;;19.60;84.20;;;;;;5084406;28;20667;-83
2021/08/24 12:47:47;;;;;;;9.60;4.50;;;19.70;84.20;;;;;;5083808;28;20220;-83
2021/08/24 12:50:12;;;;;;;13.25;4.90;;;19.80;84.60;;;;;;5084682;28;20176;-84
2021/08/24 12:52:43;;;;;;;11.90;5.23;;;19.90;83.50;;;;;;5085465;28;20179;-83
2021/08/24 12:55:16;;;;;;;12.65;4.57;;;19.90;83.50;;;;;;5084663;28;20660;-84
2021/08/24 12:57:46;;;;;;;9.45;4.88;;;19.80;83.30;;;;;;5084694;28;20245;-83
2021/08/24 13:00:39;;;;;;;8.00;5.05;;;19.70;84.80;;;;;;5084189;28;20568;-84
2021/08/24 13:03:24;;;;;;;8.05;5.15;;;19.70;83.80;;;;;;5081358;28;20546;-84
2021/08/24 13:06:18;;;;;;;7.85;4.72;;;19.70;83.00;;;;;;5083913;28;20210;-84